createdAt,value
2022-10-06T00:02:03.506Z,57.83
2022-10-06T00:04:29.882Z,58.10
2022-10-06T00:06:56.260Z,58.02
2022-10-06T00:09:22.612Z,57.86
2022-10-06T00:11:48.976Z,57.89
2022-10-06T00:14:15.328Z,57.82
2022-10-06T00:16:41.693Z,57.87
2022-10-06T00:19:08.065Z,57.76
2022-10-06T00:21:34.440Z,57.94
2022-10-06T00:24:00.810Z,57.91
2022-10-06T00:26:27.168Z,57.78
2022-10-06T00:28:53.529Z,57.83
2022-10-06T00:31:20.092Z,57.79
2022-10-06T00:33:46.524Z,57.80
2022-10-06T00:36:12.890Z,57.72
2022-10-06T00:38:39.254Z,57.66
2022-10-06T00:41:05.608Z,57.64
2022-10-06T00:43:31.964Z,57.71
2022-10-06T00:45:58.358Z,57.83
2022-10-06T00:48:24.788Z,57.71
2022-10-06T00:50:51.254Z,57.81
2022-10-06T00:53:17.612Z,57.71
2022-10-06T00:55:43.963Z,57.78
2022-10-06T00:58:10.338Z,57.69
2022-10-06T01:00:36.714Z,57.65
2022-10-06T01:03:03.149Z,57.78
2022-10-06T01:05:29.527Z,57.73
2022-10-06T01:07:55.906Z,57.72
2022-10-06T01:10:22.296Z,57.87
2022-10-06T01:12:48.652Z,57.75
2022-10-06T01:15:15.027Z,57.69
2022-10-06T01:17:41.410Z,57.81
2022-10-06T01:20:07.795Z,57.83
2022-10-06T01:22:34.152Z,57.77
2022-10-06T01:25:00.518Z,57.87
2022-10-06T01:27:26.880Z,58.04
2022-10-06T01:29:53.250Z,58.10
2022-10-06T01:32:19.600Z,58.03
2022-10-06T01:34:45.968Z,58.04
2022-10-06T01:37:12.342Z,58.02
2022-10-06T01:39:38.704Z,58.06
2022-10-06T01:42:05.065Z,57.95
2022-10-06T01:44:31.429Z,58.08
2022-10-06T01:46:57.794Z,57.99
2022-10-06T01:49:24.171Z,57.88
2022-10-06T01:51:50.534Z,57.75
2022-10-06T01:54:16.894Z,57.95
2022-10-06T01:56:43.252Z,58.07
2022-10-06T01:59:09.603Z,57.86
2022-10-06T02:01:36.020Z,57.97
2022-10-06T02:04:02.433Z,57.69
2022-10-06T02:06:28.861Z,57.84
2022-10-06T02:08:55.270Z,57.79
2022-10-06T02:11:21.629Z,57.80
2022-10-06T02:13:47.985Z,57.83
2022-10-06T02:16:14.426Z,57.84
2022-10-06T02:18:40.843Z,57.91
2022-10-06T02:21:07.227Z,57.95
2022-10-06T02:23:33.590Z,57.95
2022-10-06T02:25:59.958Z,57.80
2022-10-06T02:28:27.026Z,57.83
2022-10-06T02:30:53.854Z,57.85
2022-10-06T02:33:20.220Z,57.83
2022-10-06T02:35:46.590Z,57.70
2022-10-06T02:38:12.958Z,57.80
2022-10-06T02:40:39.326Z,57.95
2022-10-06T02:43:05.690Z,58.06
2022-10-06T02:45:32.039Z,58.08
2022-10-06T02:47:58.412Z,58.19
2022-10-06T02:50:24.793Z,58.07
2022-10-06T02:52:51.161Z,58.00
2022-10-06T02:55:17.534Z,57.99
2022-10-06T02:57:43.905Z,57.90
2022-10-06T03:00:10.264Z,58.07
2022-10-06T03:02:36.790Z,58.02
2022-10-06T03:05:03.244Z,58.01
2022-10-06T03:07:29.600Z,57.97
2022-10-06T03:09:55.955Z,58.02
2022-10-06T03:12:22.316Z,58.11
2022-10-06T03:14:48.682Z,58.00
2022-10-06T03:17:15.064Z,57.91
2022-10-06T03:19:41.434Z,58.03
2022-10-06T03:22:07.787Z,57.95
2022-10-06T03:24:34.253Z,58.02
2022-10-06T03:27:00.629Z,57.92
2022-10-06T03:29:27.035Z,57.90
2022-10-06T03:31:53.409Z,57.90
2022-10-06T03:34:19.773Z,57.93
2022-10-06T03:36:46.144Z,57.89
2022-10-06T03:39:12.508Z,57.96
2022-10-06T03:41:38.886Z,58.06
2022-10-06T03:44:05.261Z,57.99
2022-10-06T03:46:31.660Z,57.99
2022-10-06T03:48:58.110Z,58.04
2022-10-06T03:51:24.484Z,58.02
2022-10-06T03:53:50.837Z,57.98
2022-10-06T03:56:17.196Z,57.95
2022-10-06T03:58:43.655Z,58.05
2022-10-06T04:01:10.080Z,57.86
2022-10-06T04:03:36.531Z,57.96
2022-10-06T04:06:02.907Z,58.07
2022-10-06T04:08:29.456Z,58.02
2022-10-06T04:10:56.049Z,58.04
2022-10-06T04:13:22.413Z,58.05
2022-10-06T04:15:48.777Z,57.97
2022-10-06T04:18:15.144Z,57.81
2022-10-06T04:20:41.506Z,58.00
2022-10-06T04:23:07.872Z,58.06
2022-10-06T04:25:34.236Z,57.97
2022-10-06T04:28:00.638Z,58.09
2022-10-06T04:30:27.074Z,58.03
2022-10-06T04:32:53.438Z,58.04
2022-10-06T04:35:19.798Z,58.03
2022-10-06T04:37:46.171Z,57.83
2022-10-06T04:40:12.533Z,57.98
2022-10-06T04:42:38.885Z,57.85
2022-10-06T04:45:05.263Z,58.05
2022-10-06T04:47:31.624Z,57.88
2022-10-06T04:49:57.983Z,57.81
2022-10-06T04:52:24.353Z,57.99
2022-10-06T04:54:50.718Z,58.03
2022-10-06T04:57:17.074Z,58.19
2022-10-06T04:59:43.458Z,57.87
2022-10-06T05:04:36.501Z,57.96
2022-10-06T05:07:02.868Z,58.06
2022-10-06T05:09:29.241Z,57.93
2022-10-06T05:11:55.610Z,57.89
2022-10-06T05:14:21.969Z,58.00
2022-10-06T05:16:48.360Z,58.13
2022-10-06T05:19:14.755Z,58.08
2022-10-06T05:21:41.144Z,58.13
2022-10-06T05:24:08.009Z,58.19
2022-10-06T05:26:34.437Z,58.21
2022-10-06T05:29:00.798Z,58.27
2022-10-06T05:31:27.288Z,58.32
2022-10-06T05:33:53.716Z,58.33
2022-10-06T05:36:20.077Z,58.10
2022-10-06T05:38:46.446Z,58.08
2022-10-06T05:41:12.844Z,58.16
2022-10-06T05:43:39.210Z,58.11
2022-10-06T05:46:05.676Z,58.13
2022-10-06T05:48:32.365Z,58.10
2022-10-06T05:50:59.006Z,58.17
2022-10-06T05:53:25.365Z,58.03
2022-10-06T05:55:51.738Z,58.03
2022-10-06T05:58:18.659Z,57.96
2022-10-06T06:00:45.092Z,58.00
2022-10-06T06:03:11.473Z,57.74
2022-10-06T06:05:37.833Z,57.68
2022-10-06T06:08:04.179Z,57.73
2022-10-06T06:10:30.544Z,57.93
2022-10-06T06:12:56.918Z,57.98
2022-10-06T06:15:23.289Z,58.03
2022-10-06T06:17:49.675Z,57.78
2022-10-06T06:20:16.038Z,57.97
2022-10-06T06:22:42.416Z,58.13
2022-10-06T06:25:08.786Z,58.08
2022-10-06T06:27:35.152Z,58.10
2022-10-06T06:30:01.512Z,57.98
2022-10-06T06:32:27.882Z,57.94
2022-10-06T06:34:54.249Z,58.04
2022-10-06T06:37:20.637Z,58.00
2022-10-06T06:39:46.996Z,58.10
2022-10-06T06:42:13.361Z,58.20
2022-10-06T06:44:39.719Z,58.07
2022-10-06T06:47:06.078Z,57.96
2022-10-06T06:49:32.457Z,57.95
2022-10-06T06:51:58.809Z,58.08
2022-10-06T06:54:25.161Z,58.14
2022-10-06T06:56:51.531Z,58.13
2022-10-06T07:06:37.284Z,57.98
2022-10-06T07:09:03.658Z,58.14
2022-10-06T07:11:30.016Z,58.05
2022-10-06T07:13:56.398Z,58.12
2022-10-06T07:16:22.768Z,58.05
2022-10-06T07:18:49.127Z,58.07
2022-10-06T07:21:15.501Z,58.06
2022-10-06T07:23:41.868Z,58.19
2022-10-06T07:26:08.232Z,58.10
2022-10-06T07:28:34.664Z,58.18
2022-10-06T07:31:01.136Z,58.08
2022-10-06T07:33:27.539Z,58.01
2022-10-06T07:35:53.906Z,58.12
2022-10-06T07:38:20.275Z,58.03
2022-10-06T07:41:14.647Z,58.11
2022-10-06T07:43:32.995Z,57.92
2022-10-06T07:45:59.404Z,57.99
2022-10-06T07:48:25.801Z,57.81
2022-10-06T07:50:52.163Z,58.00
2022-10-06T07:53:18.531Z,57.92
2022-10-06T07:55:44.903Z,58.01
2022-10-06T07:58:11.271Z,57.96
2022-10-06T08:00:37.650Z,57.98
2022-10-06T08:03:04.039Z,58.00
2022-10-06T08:05:30.435Z,58.09
2022-10-06T08:07:57.073Z,58.05
2022-10-06T08:10:23.428Z,58.06
2022-10-06T08:12:49.797Z,58.08
2022-10-06T08:15:16.172Z,58.02
2022-10-06T08:17:42.528Z,58.09
2022-10-06T08:20:08.896Z,58.07
2022-10-06T08:22:35.275Z,58.20
2022-10-06T08:25:06.144Z,58.10
2022-10-06T08:27:33.081Z,58.27
2022-10-06T08:29:59.453Z,57.86
2022-10-06T08:32:25.839Z,57.81
2022-10-06T08:34:52.713Z,57.81
2022-10-06T08:37:20.458Z,57.83
2022-10-06T08:39:47.035Z,57.79
2022-10-06T08:42:13.408Z,57.88
2022-10-06T08:44:39.786Z,57.83
2022-10-06T08:47:06.165Z,58.02
